Terminal Aerodrome Forecast
Issued by NWS Topeka, KS

Home | Current Version | Previous Version | Graphics & Text | Print | Product List | Glossary On
Versions: 1 2 3 4 5 6 7 8 9 10 11 12 13 14 15 16 17 18
000
FTUS43 KTOP 211700 RRA
TAFTOP
TAF
KTOP 211745Z 2118/2218 19012KT 6SM BR OVC010
     FM220900 20008KT 3SM -DZ BR OVC009
     FM221500 23010KT 6SM BR OVC012=

USA.gov is the U.S. government's official web portal to all federal, state and local government web resources and services.